This is the latest recevied weather packets stored in our database for station/object VA3XLT-1. If no packets are shown the sender has not sent any weather packets the latest 1 day(s).
| Time | Temp. | Humidity | Pressure | Rain* | Wind** | Luminosity | Snow |
|---|---|---|---|---|---|---|---|
| 1778017057 | 12.22° C | 86% | 1007.8 hPa | 0 mm | - | - | - |
| 1778016757 | 12.22° C | 86% | 1007.8 hPa | 0 mm | - | - | - |
| 1778016457 | 12.22° C | 86% | 1007.7 hPa | 0 mm | - | - | - |
| 1778016157 | 12.22° C | 85% | 1007.8 hPa | 0 mm | - | - | - |
| 1778015857 | 12.78° C | 83% | 1007.7 hPa | 0 mm | - | - | - |
| 1778015557 | 12.78° C | 84% | 1007.8 hPa | 0 mm | - | - | - |
| 1778015257 | 12.78° C | 85% | 1007.8 hPa | 0 mm | - | - | - |
| 1778014657 | 12.78° C | 85% | 1007.8 hPa | 0 mm | - | - | - |
| 1778014357 | 12.78° C | 85% | 1007.8 hPa | 0 mm | - | - | - |
| 1778014057 | 12.78° C | 84% | 1008 hPa | 0 mm | - | - | - |
| 1778013757 | 12.78° C | 84% | 1008.1 hPa | 0 mm | - | - | - |
| 1778013457 | 12.78° C | 83% | 1008.2 hPa | 0 mm | - | - | - |
| 1778013157 | 13.33° C | 84% | 1008.3 hPa | 0 mm | - | - | - |
| 1778012857 | 13.33° C | 83% | 1008.4 hPa | 0 mm | - | - | - |
| 1778012557 | 13.33° C | 83% | 1008.2 hPa | 0 mm | - | - | - |
| 1778012257 | 13.33° C | 81% | 1008.2 hPa | 0 mm | - | - | - |
| 1778011657 | 13.89° C | 81% | 1007.8 hPa | 0 mm | - | - | - |
| 1778011357 | 13.89° C | 80% | 1007.9 hPa | 0 mm | - | - | - |
| 1778010757 | 14.44° C | 79% | 1008.2 hPa | 0 mm | - | - | - |
| 1778010457 | 14.44° C | 76% | 1008.3 hPa | 0 mm | - | - | - |
| 1778007457 | 15.56° C | 66% | 1007.9 hPa | 0 mm | - | - | - |
| 1778002057 | 16.11° C | 61% | 1006.9 hPa | 0 mm | - | - | - |
* Rain latest hour (hover to see other rain measurements)
** Current wind speed in m/s (hover to see current wind gust speed)